Rochelle, Illinois
Current Conditions -  °F | °C
As of 1:35 AM on Thursday 23 Oct 2014 (Local Time) from KRPJ Reporting Station
Clear Clear  
Wind Chill: 32°   Ceiling: Unl
Heat Index: 36°   Visibility: 10mi
Dew Point: 34°   Wind: 5mph
Humidity: 92%   Direction: 140°SE
Pressure: 30.23"   Gusts: NA
Location:  41.93°N, 89.07°W
Report Text: KRPJ 230635Z AUTO 14004KT 10SM CLR 02/01 A3023 RMK AO2 T00230011
Loading
Personal Weather Stations






























Interactive Weather Map
Tropical Storm Tracking
New forecast layout! Learn more

10-Day Weather Forecast

Advertisements
Track Severe Weather on mobile